Time;durP1;ratioP1;P1;durP2;ratioP2;P2;SDS_P1;SDS_P2;PMS_P1;PMS_P2;Temp;Humidity;BMP_temperature;BMP_pressure;BME280_temperature;BME280_humidity;BME280_pressure;Samples;Min_cycle;Max_cycle;Signal;HPM_P1;HPM_P2
2021/06/03 00:00:47;;;;;;;7.17;6.47;;;15.50;99.90;;;;;;487645;243;29206;-72
2021/06/03 00:02:48;;;;;;;6.10;5.60;;;15.40;99.90;;;;;;487686;243;28813;-72
2021/06/03 00:04:50;;;;;;;5.70;4.30;;;15.30;99.90;;;;;;487686;243;28853;-73
2021/06/03 00:06:51;;;;;;;5.47;5.00;;;15.30;99.90;;;;;;487708;243;29385;-73
2021/06/03 00:08:52;;;;;;;6.43;4.40;;;15.30;99.90;;;;;;487688;243;29350;-73
2021/06/03 00:10:53;;;;;;;5.37;4.30;;;15.30;99.90;;;;;;487732;243;29334;-73
2021/06/03 00:12:55;;;;;;;6.87;4.20;;;15.40;99.90;;;;;;487639;243;28816;-73
2021/06/03 00:14:56;;;;;;;6.03;4.67;;;15.40;99.90;;;;;;487612;243;28845;-73
2021/06/03 00:16:57;;;;;;;4.50;4.10;;;15.40;99.90;;;;;;487633;243;28844;-72
2021/06/03 00:19:00;;;;;;;8.37;6.17;;;15.40;99.90;;;;;;487670;243;28871;-73
2021/06/03 00:21:00;;;;;;;4.63;4.20;;;15.40;99.90;;;;;;487636;244;28846;-73
2021/06/03 00:23:01;;;;;;;6.00;5.40;;;15.40;99.90;;;;;;487626;243;28823;-72
2021/06/03 00:25:02;;;;;;;6.10;5.50;;;15.30;99.90;;;;;;487655;243;28980;-72
2021/06/03 00:27:03;;;;;;;5.07;4.67;;;15.30;99.90;;;;;;487686;243;28936;-72
2021/06/03 00:29:05;;;;;;;4.70;4.30;;;15.30;99.90;;;;;;487600;243;28882;-73
2021/06/03 00:31:06;;;;;;;4.17;3.87;;;15.30;99.90;;;;;;487654;243;29309;-73
2021/06/03 00:33:07;;;;;;;4.97;4.57;;;15.30;99.90;;;;;;487713;243;29336;-73
2021/06/03 00:35:08;;;;;;;4.83;4.43;;;15.30;99.90;;;;;;487669;243;29319;-73
2021/06/03 00:37:10;;;;;;;5.27;4.43;;;15.30;99.90;;;;;;487743;243;28810;-73
2021/06/03 00:39:11;;;;;;;5.97;5.47;;;15.20;99.90;;;;;;487686;243;28808;-72
2021/06/03 00:41:14;;;;;;;5.20;4.70;;;15.10;99.90;;;;;;487660;243;28853;-74
2021/06/03 00:43:13;;;;;;;4.77;4.37;;;15.10;99.90;;;;;;487558;243;28871;-75
2021/06/03 00:45:15;;;;;;;7.13;4.17;;;15.20;99.90;;;;;;487643;243;28849;-74
2021/06/03 00:47:16;;;;;;;4.80;4.40;;;15.10;99.90;;;;;;487675;243;28817;-74
2021/06/03 00:49:17;;;;;;;5.43;4.77;;;15.10;99.90;;;;;;487611;243;28938;-74
2021/06/03 00:51:18;;;;;;;5.20;4.80;;;15.10;99.90;;;;;;487652;243;28944;-72
2021/06/03 00:53:20;;;;;;;4.97;4.57;;;15.10;99.90;;;;;;487663;243;28813;-73
2021/06/03 00:55:21;;;;;;;4.50;4.10;;;15.00;99.90;;;;;;487611;243;29353;-73
2021/06/03 00:57:22;;;;;;;4.70;4.30;;;15.00;99.90;;;;;;487648;243;29351;-73
2021/06/03 00:59:23;;;;;;;4.77;4.37;;;14.90;99.90;;;;;;487629;243;29329;-72
2021/06/03 01:01:25;;;;;;;4.57;4.20;;;14.90;99.90;;;;;;487677;243;28856;-74
2021/06/03 01:03:26;;;;;;;4.87;4.47;;;14.90;99.90;;;;;;487780;243;28921;-72
2021/06/03 01:05:27;;;;;;;5.13;4.20;;;14.90;99.90;;;;;;487676;243;28959;-72
2021/06/03 01:07:28;;;;;;;5.27;4.23;;;14.90;99.90;;;;;;487709;243;28922;-73
2021/06/03 01:09:30;;;;;;;4.70;4.30;;;14.90;99.90;;;;;;487729;243;28913;-73
2021/06/03 01:11:31;;;;;;;4.10;3.80;;;14.90;99.90;;;;;;487616;243;29327;-74
2021/06/03 01:13:32;;;;;;;4.70;3.40;;;14.90;99.90;;;;;;487650;243;28959;-73
2021/06/03 01:15:33;;;;;;;5.67;4.40;;;14.90;99.90;;;;;;487599;243;28939;-73
2021/06/03 01:17:35;;;;;;;4.70;4.20;;;14.90;99.90;;;;;;487641;243;29325;-73
2021/06/03 01:19:36;;;;;;;5.73;5.23;;;14.90;99.90;;;;;;487645;243;29418;-73
2021/06/03 01:21:39;;;;;;;4.23;3.93;;;14.80;99.90;;;;;;487608;243;29339;-73
2021/06/03 01:23:39;;;;;;;4.40;4.00;;;14.80;99.90;;;;;;487592;244;29321;-73
2021/06/03 01:25:40;;;;;;;3.90;3.60;;;14.80;99.90;;;;;;487592;243;28911;-73
2021/06/03 01:27:41;;;;;;;6.10;5.10;;;14.80;99.90;;;;;;487635;243;28835;-73
2021/06/03 01:29:42;;;;;;;5.20;4.70;;;14.70;99.90;;;;;;487625;243;28876;-74
2021/06/03 01:31:44;;;;;;;7.17;5.67;;;14.70;99.90;;;;;;487519;243;29323;-73
2021/06/03 01:33:45;;;;;;;4.50;4.20;;;14.70;99.90;;;;;;487687;243;28810;-73
2021/06/03 01:35:46;;;;;;;6.73;5.03;;;14.70;99.90;;;;;;487681;243;28861;-74
2021/06/03 01:37:47;;;;;;;4.30;3.90;;;14.70;99.90;;;;;;486757;242;28832;-73
2021/06/03 01:39:49;;;;;;;4.60;4.30;;;14.70;99.90;;;;;;484216;242;28981;-73
2021/06/03 01:41:50;;;;;;;4.93;3.80;;;14.70;99.90;;;;;;484535;245;29426;-73
2021/06/03 01:43:51;;;;;;;4.20;3.80;;;14.70;99.90;;;;;;484672;245;29305;-73
2021/06/03 01:45:52;;;;;;;4.60;4.20;;;14.70;99.90;;;;;;484677;245;29572;-74
2021/06/03 01:47:54;;;;;;;4.60;4.20;;;14.70;99.90;;;;;;484680;245;28833;-74
2021/06/03 01:49:55;;;;;;;4.43;4.07;;;14.70;99.90;;;;;;484704;245;28866;-74
2021/06/03 01:52:00;;;;;;;4.47;4.10;;;14.70;99.90;;;;;;484675;245;28883;-73
2021/06/03 01:53:57;;;;;;;4.80;4.30;;;14.70;99.90;;;;;;484300;245;28853;-73
2021/06/03 01:55:59;;;;;;;6.67;6.00;;;14.60;99.90;;;;;;484606;245;28887;-74
2021/06/03 01:58:00;;;;;;;8.67;6.90;;;14.50;99.90;;;;;;484640;245;28857;-74
2021/06/03 02:00:01;;;;;;;4.93;4.53;;;14.50;99.90;;;;;;484608;245;28895;-74
2021/06/03 02:02:02;;;;;;;6.13;5.50;;;14.50;99.90;;;;;;484612;245;28899;-73
2021/06/03 02:04:04;;;;;;;6.60;5.57;;;14.60;99.90;;;;;;484625;245;28930;-74
2021/06/03 02:06:05;;;;;;;4.43;4.03;;;14.60;99.90;;;;;;484591;245;29456;-74
2021/06/03 02:08:06;;;;;;;4.70;4.30;;;14.60;99.90;;;;;;484738;245;29280;-74
2021/06/03 02:10:07;;;;;;;7.87;4.77;;;14.60;99.90;;;;;;484697;245;29375;-74
2021/06/03 02:12:09;;;;;;;5.63;5.03;;;14.70;99.90;;;;;;484569;245;29342;-73
2021/06/03 02:14:10;;;;;;;4.37;4.07;;;14.70;99.90;;;;;;484588;245;28883;-73
2021/06/03 02:16:11;;;;;;;5.27;4.80;;;14.70;99.90;;;;;;484667;245;28881;-73
2021/06/03 02:18:12;;;;;;;4.03;3.73;;;14.70;99.90;;;;;;484684;245;28990;-73
2021/06/03 02:20:14;;;;;;;4.30;4.00;;;14.60;99.90;;;;;;484709;245;28889;-74
2021/06/03 02:22:15;;;;;;;4.97;4.30;;;14.60;99.90;;;;;;484584;245;28863;-73
2021/06/03 02:24:16;;;;;;;3.90;3.60;;;14.60;99.90;;;;;;484613;245;28887;-73
2021/06/03 02:26:17;;;;;;;5.03;4.53;;;14.50;99.90;;;;;;484608;245;28890;-74
2021/06/03 02:28:19;;;;;;;4.67;4.10;;;14.50;99.90;;;;;;484673;242;28930;-73
2021/06/03 02:30:20;;;;;;;4.20;3.90;;;14.50;99.90;;;;;;484599;245;29345;-74
2021/06/03 02:32:22;;;;;;;5.10;4.53;;;14.50;99.90;;;;;;484584;245;29321;-73
2021/06/03 02:34:22;;;;;;;4.30;4.00;;;14.40;99.90;;;;;;484693;245;29384;-75
2021/06/03 02:36:24;;;;;;;5.47;3.87;;;14.40;99.90;;;;;;484706;245;29383;-74
2021/06/03 02:38:25;;;;;;;4.37;4.00;;;14.40;99.90;;;;;;484664;245;28927;-74
2021/06/03 02:40:26;;;;;;;4.47;4.17;;;14.30;99.90;;;;;;484721;245;28874;-74
2021/06/03 02:42:27;;;;;;;5.57;5.13;;;14.30;99.90;;;;;;484575;245;28861;-73
2021/06/03 02:44:29;;;;;;;5.00;4.60;;;14.30;99.90;;;;;;484644;245;28887;-73
2021/06/03 02:46:30;;;;;;;4.50;4.10;;;14.20;99.90;;;;;;484615;245;29339;-73
2021/06/03 02:48:31;;;;;;;4.30;4.00;;;14.10;99.90;;;;;;484593;245;28872;-73
2021/06/03 02:50:32;;;;;;;4.87;4.20;;;14.20;99.90;;;;;;484692;245;28906;-73
2021/06/03 02:52:34;;;;;;;4.43;4.03;;;14.10;99.90;;;;;;484664;245;28866;-73
2021/06/03 02:54:35;;;;;;;4.37;3.97;;;14.20;99.90;;;;;;484718;245;29370;-73
2021/06/03 02:56:36;;;;;;;4.40;4.07;;;14.10;99.90;;;;;;484718;245;29446;-72
2021/06/03 02:58:37;;;;;;;5.20;4.20;;;14.20;99.90;;;;;;484641;245;29298;-73
2021/06/03 03:00:39;;;;;;;3.93;3.63;;;14.10;99.90;;;;;;484648;245;29337;-72
2021/06/03 03:02:40;;;;;;;4.07;3.77;;;14.20;99.90;;;;;;484602;245;28948;-72
2021/06/03 03:04:41;;;;;;;4.40;4.10;;;14.20;99.90;;;;;;484738;245;28959;-73
2021/06/03 03:06:42;;;;;;;5.23;4.73;;;14.10;99.90;;;;;;484694;245;28896;-72
2021/06/03 03:08:44;;;;;;;5.00;4.33;;;14.10;99.90;;;;;;484671;245;28859;-72
2021/06/03 03:10:45;;;;;;;4.23;3.93;;;14.20;99.90;;;;;;484708;245;28961;-73
2021/06/03 03:12:46;;;;;;;6.00;5.50;;;14.10;99.90;;;;;;484567;245;28906;-72
2021/06/03 03:14:47;;;;;;;4.80;4.40;;;14.20;99.90;;;;;;484598;245;28892;-72
2021/06/03 03:16:49;;;;;;;4.60;4.27;;;14.20;99.90;;;;;;484641;245;28838;-73
2021/06/03 03:18:50;;;;;;;6.40;5.90;;;14.20;99.90;;;;;;484580;245;28987;-73
2021/06/03 03:20:51;;;;;;;4.67;4.27;;;14.20;99.90;;;;;;484621;245;29394;-73
2021/06/03 03:22:52;;;;;;;4.63;4.23;;;14.10;99.90;;;;;;484665;245;29377;-73
2021/06/03 03:24:54;;;;;;;4.23;3.93;;;14.10;99.90;;;;;;484699;245;29409;-73
2021/06/03 03:26:55;;;;;;;4.17;3.87;;;14.20;99.90;;;;;;484699;245;28839;-74
2021/06/03 03:28:56;;;;;;;4.60;4.23;;;14.30;99.90;;;;;;484526;245;29031;-73
2021/06/03 03:30:57;;;;;;;4.83;4.43;;;14.30;99.90;;;;;;484601;245;28876;-74
2021/06/03 03:32:59;;;;;;;4.70;4.30;;;14.40;99.90;;;;;;484551;245;28901;-73
2021/06/03 03:35:00;;;;;;;6.93;4.67;;;14.40;99.90;;;;;;484611;245;28891;-73
2021/06/03 03:37:01;;;;;;;4.97;4.57;;;14.40;99.90;;;;;;484615;245;28522;-73
2021/06/03 03:39:02;;;;;;;5.63;4.67;;;14.40;99.90;;;;;;484562;245;28935;-72
2021/06/03 03:41:04;;;;;;;4.30;3.90;;;14.30;99.90;;;;;;484714;245;28605;-73
2021/06/03 03:43:05;;;;;;;5.43;4.40;;;14.40;99.90;;;;;;484686;242;28846;-72
2021/06/03 03:45:06;;;;;;;4.57;4.17;;;14.40;99.90;;;;;;484572;245;29347;-73
2021/06/03 03:47:07;;;;;;;4.87;4.47;;;14.40;99.90;;;;;;484630;245;29382;-73
2021/06/03 03:49:09;;;;;;;4.50;4.10;;;14.40;99.90;;;;;;484585;245;29349;-73
2021/06/03 03:51:13;;;;;;;4.70;4.30;;;14.40;99.90;;;;;;484611;245;28896;-72
2021/06/03 03:53:11;;;;;;;5.10;4.60;;;14.40;99.90;;;;;;484402;242;28969;-74
2021/06/03 03:55:12;;;;;;;4.10;3.80;;;14.50;99.90;;;;;;484606;245;29012;-73
2021/06/03 03:57:14;;;;;;;5.43;4.40;;;14.50;99.90;;;;;;484683;245;28844;-73
2021/06/03 03:59:15;;;;;;;4.10;3.80;;;14.50;99.90;;;;;;484664;245;28889;-73
2021/06/03 04:01:16;;;;;;;4.27;3.93;;;14.50;99.90;;;;;;484713;245;28910;-73
2021/06/03 04:03:17;;;;;;;5.17;4.70;;;14.60;99.90;;;;;;484738;245;28848;-73
2021/06/03 04:05:19;;;;;;;4.90;4.50;;;14.60;99.90;;;;;;484694;245;28975;-73
2021/06/03 04:07:20;;;;;;;4.73;4.33;;;14.60;99.90;;;;;;484629;245;28840;-73
2021/06/03 04:09:21;;;;;;;5.07;4.57;;;14.70;99.90;;;;;;484606;245;29342;-72
2021/06/03 04:11:24;;;;;;;5.13;4.73;;;14.60;99.90;;;;;;484614;245;29434;-72
2021/06/03 04:13:24;;;;;;;5.37;4.37;;;14.70;99.90;;;;;;484468;245;29355;-75
2021/06/03 04:15:25;;;;;;;5.17;4.77;;;14.70;99.90;;;;;;484557;245;28989;-73
2021/06/03 04:17:26;;;;;;;5.53;5.03;;;14.70;99.90;;;;;;484634;245;28925;-73
2021/06/03 04:19:27;;;;;;;4.90;4.50;;;14.70;99.90;;;;;;484679;245;28987;-73
2021/06/03 04:21:29;;;;;;;4.87;4.20;;;14.70;99.90;;;;;;484700;245;28875;-72
2021/06/03 04:23:30;;;;;;;6.10;5.60;;;14.70;99.90;;;;;;484731;245;28848;-73
2021/06/03 04:25:31;;;;;;;4.83;4.43;;;14.80;99.90;;;;;;484712;245;28909;-74
2021/06/03 04:27:32;;;;;;;4.40;4.10;;;14.80;99.90;;;;;;484680;245;28899;-73
2021/06/03 04:29:34;;;;;;;5.73;5.20;;;14.80;99.90;;;;;;484634;245;28905;-73
2021/06/03 04:31:35;;;;;;;4.47;4.17;;;14.80;99.90;;;;;;484700;245;28849;-74
2021/06/03 04:33:36;;;;;;;4.90;4.50;;;14.80;99.90;;;;;;484675;245;29455;-73
2021/06/03 04:35:38;;;;;;;4.80;4.40;;;14.80;99.90;;;;;;484565;245;29435;-74
2021/06/03 04:37:39;;;;;;;4.50;4.20;;;14.90;99.90;;;;;;484261;245;29305;-73
2021/06/03 04:39:40;;;;;;;5.47;4.20;;;15.00;99.90;;;;;;484561;245;28878;-73
2021/06/03 04:41:41;;;;;;;5.13;4.73;;;15.00;99.90;;;;;;484573;245;28946;-73
2021/06/03 04:43:43;;;;;;;4.70;4.30;;;15.10;99.90;;;;;;484607;245;28898;-73
2021/06/03 04:45:44;;;;;;;4.70;4.30;;;15.10;99.90;;;;;;484608;245;28997;-73
2021/06/03 04:47:45;;;;;;;4.50;4.10;;;15.20;99.90;;;;;;484591;245;28942;-73
2021/06/03 04:49:46;;;;;;;4.47;4.17;;;15.30;99.90;;;;;;484555;245;28893;-73
2021/06/03 04:51:48;;;;;;;5.27;4.60;;;15.30;99.90;;;;;;484651;242;28931;-73
2021/06/03 04:53:49;;;;;;;4.43;4.13;;;15.40;99.90;;;;;;484618;242;28857;-73
2021/06/03 04:55:50;;;;;;;6.33;4.30;;;15.50;99.90;;;;;;484530;245;28980;-73
2021/06/03 04:57:51;;;;;;;4.53;4.23;;;15.50;99.90;;;;;;484578;245;29374;-73
2021/06/03 04:59:53;;;;;;;5.30;4.80;;;15.50;99.90;;;;;;484549;245;29702;-73
2021/06/03 05:01:54;;;;;;;5.00;4.60;;;15.50;99.90;;;;;;484605;245;29380;-73
2021/06/03 05:03:55;;;;;;;4.90;4.50;;;15.60;99.90;;;;;;484591;245;28862;-73
2021/06/03 05:05:56;;;;;;;4.83;4.40;;;15.60;99.90;;;;;;484607;245;28889;-73
2021/06/03 05:07:58;;;;;;;3.90;3.60;;;15.60;99.90;;;;;;484624;245;28839;-73
2021/06/03 05:09:59;;;;;;;5.40;4.90;;;15.70;99.90;;;;;;484690;245;28946;-73
2021/06/03 05:12:00;;;;;;;4.73;4.33;;;15.70;99.90;;;;;;484642;245;28922;-73
2021/06/03 05:14:01;;;;;;;5.80;4.33;;;15.80;99.90;;;;;;484668;245;28889;-73
2021/06/03 05:16:03;;;;;;;4.97;4.57;;;15.90;99.90;;;;;;484684;245;28905;-74
2021/06/03 05:18:04;;;;;;;5.23;4.83;;;15.90;99.90;;;;;;484634;245;28835;-75
2021/06/03 05:20:05;;;;;;;6.50;5.40;;;15.90;99.90;;;;;;484651;245;28868;-73
2021/06/03 05:22:06;;;;;;;5.90;5.40;;;15.90;99.90;;;;;;484622;245;29568;-72
2021/06/03 05:24:08;;;;;;;4.73;4.33;;;16.00;99.90;;;;;;484653;245;29435;-73
2021/06/03 05:26:09;;;;;;;7.00;4.87;;;16.10;99.90;;;;;;484559;245;29466;-74
2021/06/03 05:28:10;;;;;;;4.87;4.47;;;16.10;99.90;;;;;;484609;245;28853;-73
2021/06/03 05:30:11;;;;;;;5.67;4.60;;;16.20;99.90;;;;;;484618;245;28890;-73
2021/06/03 05:32:13;;;;;;;5.30;4.90;;;16.30;99.90;;;;;;484607;245;28988;-73
2021/06/03 05:34:14;;;;;;;5.30;4.90;;;16.40;99.90;;;;;;484624;245;28886;-73
2021/06/03 05:36:15;;;;;;;6.77;6.07;;;16.40;99.90;;;;;;484635;245;29206;-72
2021/06/03 05:38:16;;;;;;;8.37;5.37;;;16.50;99.90;;;;;;484647;245;28865;-73
2021/06/03 05:40:18;;;;;;;5.03;4.63;;;16.60;99.90;;;;;;484635;245;28972;-73
2021/06/03 05:42:19;;;;;;;6.07;5.37;;;16.60;99.90;;;;;;484641;245;28949;-72
2021/06/03 05:44:20;;;;;;;6.50;5.20;;;16.70;99.90;;;;;;484610;245;28887;-75
2021/06/03 05:46:21;;;;;;;5.67;5.27;;;16.80;99.90;;;;;;484607;245;29492;-73
2021/06/03 05:48:23;;;;;;;5.33;4.83;;;16.90;99.90;;;;;;484671;245;29370;-72
2021/06/03 05:50:24;;;;;;;4.90;4.50;;;17.00;99.90;;;;;;484648;245;29484;-73
2021/06/03 05:52:25;;;;;;;6.17;5.03;;;17.10;99.90;;;;;;484563;245;28857;-75
2021/06/03 05:54:26;;;;;;;5.10;4.60;;;17.20;99.90;;;;;;484590;245;28883;-74
2021/06/03 05:56:28;;;;;;;4.87;4.47;;;17.30;99.90;;;;;;484543;245;28894;-75
2021/06/03 05:58:29;;;;;;;6.30;5.10;;;17.40;99.90;;;;;;484572;245;28903;-74
2021/06/03 06:00:32;;;;;;;4.97;4.50;;;17.40;99.90;;;;;;484591;245;28957;-75
2021/06/03 06:02:44;;;;;;;4.97;4.20;;;17.50;99.90;;;;;;484415;245;28830;-75
2021/06/03 06:06:37;;;;;;;4.40;4.10;;;17.60;99.90;;;;;;484606;245;28886;-73
2021/06/03 06:08:38;;;;;;;6.07;4.43;;;17.70;99.90;;;;;;484634;245;28910;-73
2021/06/03 06:10:40;;;;;;;6.40;4.63;;;17.80;99.90;;;;;;484628;245;28851;-73
2021/06/03 06:12:41;;;;;;;4.87;4.30;;;17.80;99.90;;;;;;484533;245;28883;-75
2021/06/03 06:14:42;;;;;;;5.33;4.03;;;17.80;99.90;;;;;;484596;245;28841;-73
2021/06/03 06:16:43;;;;;;;5.33;4.83;;;18.00;99.90;;;;;;484609;245;28900;-73
2021/06/03 06:18:44;;;;;;;5.33;4.83;;;18.00;99.90;;;;;;484595;245;29235;-75
2021/06/03 06:20:46;;;;;;;4.87;4.07;;;18.00;99.90;;;;;;484627;245;28941;-75
2021/06/03 06:22:47;;;;;;;5.10;4.63;;;18.10;99.90;;;;;;484601;245;29354;-75
2021/06/03 06:24:48;;;;;;;5.53;4.80;;;18.20;99.90;;;;;;484609;245;29300;-73
2021/06/03 06:26:49;;;;;;;4.47;4.07;;;18.20;99.90;;;;;;484620;245;29447;-73
2021/06/03 06:28:51;;;;;;;4.67;4.00;;;18.40;99.90;;;;;;484579;245;29547;-75
2021/06/03 06:30:52;;;;;;;6.10;4.43;;;18.40;99.90;;;;;;484608;245;28858;-73
2021/06/03 06:32:53;;;;;;;4.60;4.20;;;18.50;99.90;;;;;;480313;242;28946;-75
2021/06/03 06:34:54;;;;;;;4.70;4.30;;;18.60;99.90;;;;;;491044;242;28919;-75
2021/06/03 06:36:56;;;;;;;4.50;4.10;;;18.60;99.90;;;;;;493272;241;28750;-75
2021/06/03 06:38:57;;;;;;;4.37;3.97;;;18.70;99.90;;;;;;493253;241;28742;-74
2021/06/03 06:40:58;;;;;;;6.27;4.13;;;18.80;99.90;;;;;;493324;241;28710;-75
2021/06/03 06:42:59;;;;;;;5.73;4.30;;;18.80;99.90;;;;;;491770;242;28845;-74
2021/06/03 06:45:01;;;;;;;6.60;4.37;;;18.90;99.90;;;;;;491810;242;28790;-74
2021/06/03 06:47:02;;;;;;;5.17;4.40;;;19.00;99.90;;;;;;491820;242;28751;-73
2021/06/03 06:49:03;;;;;;;4.40;4.07;;;19.00;99.90;;;;;;491809;242;28759;-74
2021/06/03 06:51:05;;;;;;;4.67;4.17;;;19.00;99.90;;;;;;491858;242;28699;-75
2021/06/03 06:53:06;;;;;;;4.57;3.90;;;19.10;99.90;;;;;;491823;242;29308;-75
2021/06/03 06:55:07;;;;;;;6.47;4.00;;;19.00;99.90;;;;;;491745;242;29267;-75
2021/06/03 06:57:08;;;;;;;6.67;3.87;;;19.00;99.90;;;;;;491870;242;29322;-75
2021/06/03 06:59:10;;;;;;;5.43;4.13;;;19.10;99.90;;;;;;491828;242;28748;-73
2021/06/03 07:01:11;;;;;;;5.53;4.57;;;19.20;99.90;;;;;;491871;242;28707;-73
2021/06/03 07:03:12;;;;;;;4.43;4.00;;;19.20;99.90;;;;;;491864;242;28761;-75
2021/06/03 07:05:13;;;;;;;4.37;3.97;;;19.30;99.90;;;;;;491775;242;28774;-74
2021/06/03 07:07:15;;;;;;;4.97;4.27;;;19.30;99.90;;;;;;491868;242;28751;-70
2021/06/03 07:09:16;;;;;;;4.50;4.20;;;19.30;99.90;;;;;;487539;242;28866;-73
2021/06/03 07:11:17;;;;;;;7.70;4.10;;;19.20;99.90;;;;;;485547;245;28867;-73
2021/06/03 07:13:18;;;;;;;6.30;4.33;;;19.30;99.90;;;;;;476225;245;28945;-73
2021/06/03 07:15:20;;;;;;;4.47;4.07;;;19.30;99.90;;;;;;472512;248;28923;-73
2021/06/03 07:17:21;;;;;;;4.00;3.70;;;19.30;99.90;;;;;;479244;248;29351;-72
2021/06/03 07:19:22;;;;;;;4.43;3.77;;;19.30;99.90;;;;;;479300;248;29334;-73
2021/06/03 07:21:23;;;;;;;5.60;5.03;;;19.40;99.90;;;;;;479216;248;29364;-71
2021/06/03 07:23:25;;;;;;;4.60;4.13;;;19.40;99.90;;;;;;479269;248;28900;-74
2021/06/03 07:25:26;;;;;;;4.13;3.73;;;19.30;99.90;;;;;;479255;248;28867;-73
2021/06/03 07:27:27;;;;;;;3.80;3.50;;;19.40;99.90;;;;;;479250;248;28885;-73
2021/06/03 07:29:28;;;;;;;4.17;3.80;;;19.30;99.90;;;;;;479314;248;28947;-72
2021/06/03 07:31:31;;;;;;;4.93;4.40;;;19.20;99.90;;;;;;479291;248;28965;-73
2021/06/03 07:33:31;;;;;;;5.10;4.10;;;19.20;99.90;;;;;;479205;248;29233;-74
2021/06/03 07:35:32;;;;;;;4.60;4.20;;;19.20;99.90;;;;;;479268;248;28935;-72
2021/06/03 07:37:33;;;;;;;5.57;3.87;;;19.10;99.90;;;;;;479201;248;28898;-72
2021/06/03 07:39:35;;;;;;;6.87;4.47;;;19.10;99.90;;;;;;479280;248;29317;-72
2021/06/03 07:41:36;;;;;;;5.17;4.27;;;19.10;99.90;;;;;;479263;248;29353;-72
2021/06/03 07:43:37;;;;;;;5.03;4.60;;;19.00;99.90;;;;;;479218;248;29417;-73
2021/06/03 07:45:38;;;;;;;4.50;3.83;;;19.00;99.90;;;;;;479262;248;29295;-72
2021/06/03 07:47:40;;;;;;;4.97;4.20;;;19.00;99.90;;;;;;479289;248;28973;-73
2021/06/03 07:49:41;;;;;;;4.60;4.17;;;19.00;99.90;;;;;;479239;248;28835;-72
2021/06/03 07:51:42;;;;;;;4.53;4.13;;;19.00;99.90;;;;;;479266;248;28909;-72
2021/06/03 07:53:43;;;;;;;4.93;4.50;;;19.00;99.90;;;;;;479194;248;28902;-72
2021/06/03 07:55:45;;;;;;;4.50;4.00;;;19.00;99.90;;;;;;479246;248;28856;-72
2021/06/03 07:57:46;;;;;;;4.33;4.00;;;19.00;99.90;;;;;;479270;248;28890;-73
2021/06/03 07:59:47;;;;;;;4.50;4.10;;;19.00;99.90;;;;;;479210;248;28867;-73
2021/06/03 08:01:48;;;;;;;4.17;3.83;;;19.00;99.90;;;;;;479293;248;28888;-73
2021/06/03 08:03:50;;;;;;;5.73;4.20;;;19.10;99.90;;;;;;479262;248;28882;-74
2021/06/03 08:05:52;;;;;;;5.83;4.67;;;19.10;99.90;;;;;;479170;248;28862;-72
2021/06/03 08:07:52;;;;;;;4.57;4.13;;;19.30;99.90;;;;;;479227;248;29404;-71
2021/06/03 08:09:53;;;;;;;5.27;4.33;;;19.20;99.90;;;;;;479206;248;29427;-72
2021/06/03 08:11:55;;;;;;;4.63;4.20;;;19.20;99.90;;;;;;479299;248;29390;-72
2021/06/03 08:13:56;;;;;;;4.50;3.90;;;19.10;99.90;;;;;;479293;248;28904;-70
2021/06/03 08:15:57;;;;;;;9.63;4.23;;;19.20;99.90;;;;;;479156;248;28957;-71
2021/06/03 08:17:59;;;;;;;5.50;4.30;;;19.30;99.90;;;;;;479251;248;28889;-70
2021/06/03 08:20:00;;;;;;;5.87;4.60;;;19.40;99.90;;;;;;479245;248;28889;-70
2021/06/03 08:22:01;;;;;;;13.50;5.13;;;19.50;99.90;;;;;;479166;248;28891;-70
2021/06/03 08:24:02;;;;;;;5.63;5.07;;;19.60;99.90;;;;;;479271;248;29255;-70
2021/06/03 08:26:03;;;;;;;7.17;4.80;;;19.60;99.90;;;;;;479211;248;29016;-73
2021/06/03 08:28:05;;;;;;;4.70;4.30;;;19.70;99.90;;;;;;479274;248;28902;-71
2021/06/03 08:30:06;;;;;;;5.03;4.13;;;19.90;99.90;;;;;;479257;248;29341;-70
2021/06/03 08:32:07;;;;;;;6.30;4.13;;;20.00;99.90;;;;;;479215;248;29349;-72
2021/06/03 08:34:08;;;;;;;4.60;4.20;;;20.00;99.90;;;;;;479274;248;29484;-71
2021/06/03 08:36:10;;;;;;;8.67;4.73;;;20.10;99.90;;;;;;479244;248;29416;-70
2021/06/03 08:38:11;;;;;;;4.17;3.77;;;20.30;99.90;;;;;;479202;248;28972;-72
2021/06/03 08:40:12;;;;;;;7.03;4.80;;;20.30;99.90;;;;;;479315;248;28850;-70
2021/06/03 08:42:13;;;;;;;6.30;4.43;;;20.40;99.90;;;;;;479232;248;28909;-72
2021/06/03 08:44:15;;;;;;;4.13;3.83;;;20.50;99.90;;;;;;479291;248;28971;-73
2021/06/03 08:46:16;;;;;;;10.87;4.43;;;20.50;99.90;;;;;;479285;248;28866;-72
2021/06/03 08:48:17;;;;;;;3.93;3.53;;;20.50;99.90;;;;;;479204;248;28908;-73
2021/06/03 08:50:18;;;;;;;5.83;4.20;;;20.60;99.90;;;;;;479277;248;29019;-73
2021/06/03 08:52:20;;;;;;;6.23;4.33;;;20.50;99.90;;;;;;479272;248;28913;-71
2021/06/03 08:54:21;;;;;;;5.77;4.93;;;20.70;99.90;;;;;;479217;248;30401;-73
2021/06/03 08:56:23;;;;;;;4.40;4.00;;;20.80;99.90;;;;;;479216;248;29334;-72
2021/06/03 08:58:23;;;;;;;4.93;4.47;;;20.90;99.90;;;;;;479189;248;29597;-73
2021/06/03 09:00:25;;;;;;;4.40;4.10;;;21.10;99.90;;;;;;479275;248;28863;-73
2021/06/03 09:02:26;;;;;;;4.47;4.07;;;21.20;99.90;;;;;;479251;248;28894;-72
2021/06/03 09:04:27;;;;;;;4.77;4.27;;;21.40;99.90;;;;;;479159;248;28971;-72
2021/06/03 09:06:28;;;;;;;4.40;4.00;;;21.40;99.90;;;;;;479230;248;28886;-72
2021/06/03 09:08:30;;;;;;;4.70;3.47;;;21.50;99.90;;;;;;479293;248;28985;-73
2021/06/03 09:10:31;;;;;;;5.47;3.90;;;21.60;99.90;;;;;;479183;248;28985;-73
2021/06/03 09:12:32;;;;;;;4.17;3.67;;;21.80;99.90;;;;;;479268;248;28964;-72
2021/06/03 09:14:33;;;;;;;4.80;4.40;;;21.90;99.90;;;;;;479182;248;28940;-72
2021/06/03 09:16:35;;;;;;;5.50;4.30;;;21.90;99.90;;;;;;479191;248;28910;-72
2021/06/03 09:18:36;;;;;;;4.43;4.10;;;21.90;99.90;;;;;;479280;248;29376;-72
2021/06/03 09:20:37;;;;;;;4.87;4.17;;;21.90;99.90;;;;;;479173;248;29299;-72
2021/06/03 09:22:38;;;;;;;4.33;3.93;;;21.80;99.90;;;;;;479271;248;29490;-73
2021/06/03 09:24:40;;;;;;;4.37;4.07;;;21.60;99.90;;;;;;479289;248;28979;-72
2021/06/03 09:26:41;;;;;;;4.53;4.00;;;21.50;99.90;;;;;;479180;248;28908;-72
2021/06/03 09:28:42;;;;;;;4.03;3.57;;;21.30;99.90;;;;;;479266;248;28896;-72
2021/06/03 09:30:43;;;;;;;4.50;3.80;;;21.30;99.90;;;;;;479204;248;29056;-72
2021/06/03 09:32:45;;;;;;;3.50;3.20;;;21.30;99.90;;;;;;479241;248;28921;-71
2021/06/03 09:34:46;;;;;;;3.60;3.37;;;21.30;99.90;;;;;;479243;248;28879;-72
2021/06/03 09:36:48;;;;;;;4.00;3.53;;;21.40;99.90;;;;;;479187;248;28930;-72
2021/06/03 09:38:49;;;;;;;5.20;3.50;;;21.60;99.90;;;;;;479262;248;28973;-73
2021/06/03 09:40:50;;;;;;;4.63;3.83;;;21.90;99.90;;;;;;479300;248;28871;-73
2021/06/03 09:42:51;;;;;;;3.53;3.23;;;22.10;99.90;;;;;;479221;248;29427;-73
2021/06/03 09:44:53;;;;;;;5.53;3.60;;;22.30;99.90;;;;;;479305;248;29350;-72
2021/06/03 09:46:54;;;;;;;4.00;3.60;;;22.00;99.90;;;;;;479212;248;29392;-72
2021/06/03 09:48:55;;;;;;;3.77;3.47;;;21.90;99.90;;;;;;479261;248;28889;-72
2021/06/03 09:50:56;;;;;;;3.50;3.20;;;21.60;99.90;;;;;;479285;248;28867;-72
2021/06/03 09:52:57;;;;;;;3.43;3.17;;;21.50;99.90;;;;;;479211;248;28893;-72
2021/06/03 09:54:59;;;;;;;5.27;3.40;;;21.40;99.90;;;;;;479285;248;28850;-72
2021/06/03 09:57:00;;;;;;;4.27;3.60;;;21.40;99.90;;;;;;479263;248;28885;-72
2021/06/03 09:59:01;;;;;;;3.30;3.10;;;21.60;99.90;;;;;;479202;248;28874;-70
2021/06/03 10:01:02;;;;;;;3.30;3.10;;;21.70;99.90;;;;;;479288;248;28951;-72
2021/06/03 10:03:04;;;;;;;3.77;3.47;;;21.80;99.90;;;;;;479216;248;28908;-72
2021/06/03 10:05:05;;;;;;;3.07;2.80;;;21.90;99.90;;;;;;479230;248;28850;-71
2021/06/03 10:07:06;;;;;;;4.00;3.70;;;22.00;99.90;;;;;;479256;248;29414;-72
2021/06/03 10:09:07;;;;;;;3.50;3.20;;;22.20;99.90;;;;;;479185;248;29318;-73
2021/06/03 10:11:09;;;;;;;3.33;3.13;;;22.40;99.90;;;;;;479267;248;29411;-72
2021/06/03 10:13:10;;;;;;;3.30;3.00;;;22.60;99.90;;;;;;479268;248;28881;-72
2021/06/03 10:15:11;;;;;;;3.47;3.17;;;22.60;99.90;;;;;;479184;248;28842;-72
2021/06/03 10:17:12;;;;;;;4.20;3.60;;;22.50;99.90;;;;;;479308;248;29011;-72
2021/06/03 10:19:14;;;;;;;3.50;3.30;;;22.50;99.90;;;;;;479209;248;28889;-72
2021/06/03 10:21:15;;;;;;;3.93;3.53;;;22.40;99.90;;;;;;479252;248;28883;-72
2021/06/03 10:23:18;;;;;;;7.17;3.73;;;22.40;99.90;;;;;;479310;248;28898;-72
2021/06/03 10:25:17;;;;;;;3.93;3.50;;;22.30;99.90;;;;;;479123;248;28866;-71
2021/06/03 10:27:19;;;;;;;5.87;3.60;;;22.30;99.90;;;;;;479308;248;28952;-72
2021/06/03 10:29:20;;;;;;;4.07;3.40;;;22.30;99.90;;;;;;479267;248;28839;-72
2021/06/03 10:31:22;;;;;;;4.80;3.70;;;22.30;99.90;;;;;;479220;248;29400;-71
2021/06/03 10:33:22;;;;;;;4.47;3.53;;;22.40;99.90;;;;;;479277;248;29365;-73